Time;durP1;ratioP1;P1;durP2;ratioP2;P2;SDS_P1;SDS_P2;PMS_P1;PMS_P2;Temp;Humidity;BMP_temperature;BMP_pressure;BME280_temperature;BME280_humidity;BME280_pressure;Samples;Min_cycle;Max_cycle;Signal;HPM_P1;HPM_P2
2023/10/18 03:02:39;;;;;;;40.83;18.33;;;5.50;99.90;;;;;;6156112;23;20014;-77
2023/10/18 03:05:06;;;;;;;41.05;18.08;;;5.50;99.90;;;;;;6129995;23;20009;-77
2023/10/18 03:07:34;;;;;;;40.78;17.13;;;5.50;99.90;;;;;;6156080;23;20005;-76
2023/10/18 03:10:11;;;;;;;38.40;16.50;;;5.40;99.90;;;;;;6129937;23;20024;-77
2023/10/18 03:12:38;;;;;;;34.60;16.13;;;5.40;99.90;;;;;;6100712;23;20538;-75
2023/10/18 03:15:23;;;;;;;37.60;17.83;;;5.30;99.90;;;;;;6076579;23;20018;-77
2023/10/18 03:17:49;;;;;;;38.50;16.17;;;5.30;99.90;;;;;;6127160;23;20014;-77
2023/10/18 03:20:26;;;;;;;42.97;18.58;;;5.30;99.90;;;;;;6076328;23;20242;-77
2023/10/18 03:22:52;;;;;;;39.53;17.88;;;5.20;99.90;;;;;;6101199;23;20045;-77
2023/10/18 03:25:26;;;;;;;39.95;16.92;;;5.20;99.90;;;;;;6100548;23;20067;-77
2023/10/18 03:27:58;;;;;;;40.33;17.90;;;5.20;99.90;;;;;;6126458;23;20017;-76
2023/10/18 03:30:40;;;;;;;36.67;17.27;;;5.20;99.90;;;;;;6100317;23;20432;-77
2023/10/18 03:33:07;;;;;;;39.25;18.10;;;5.20;99.90;;;;;;6100041;23;20026;-76
2023/10/18 03:35:38;;;;;;;43.20;18.85;;;5.10;99.90;;;;;;6076395;23;20064;-78
2023/10/18 03:38:07;;;;;;;43.45;18.63;;;5.20;99.90;;;;;;6100347;23;20006;-77
2023/10/18 03:40:36;;;;;;;42.33;18.85;;;5.10;99.90;;;;;;6126599;23;20127;-76
2023/10/18 03:43:09;;;;;;;38.75;18.13;;;5.10;99.90;;;;;;6126916;23;20341;-77
2023/10/18 03:48:27;;;;;;;42.70;19.90;;;5.10;99.90;;;;;;6100296;23;20034;-77
2023/10/18 03:51:00;;;;;;;43.42;18.77;;;5.10;99.90;;;;;;6100799;23;20014;-77
2023/10/18 03:53:27;;;;;;;44.05;19.40;;;5.10;99.90;;;;;;6126535;23;20076;-77
2023/10/18 03:55:55;;;;;;;43.70;19.38;;;5.10;99.90;;;;;;6100320;23;20013;-77
2023/10/18 03:58:26;;;;;;;44.97;19.35;;;5.10;99.90;;;;;;6100161;23;20033;-77
2023/10/18 04:00:56;;;;;;;40.05;18.65;;;5.10;99.90;;;;;;6095166;23;20066;-77
2023/10/18 04:03:27;;;;;;;45.22;19.83;;;5.10;99.90;;;;;;6095409;23;20018;-77
2023/10/18 04:05:53;;;;;;;44.65;20.00;;;5.10;99.90;;;;;;6095414;23;20022;-77
2023/10/18 04:08:20;;;;;;;44.85;19.70;;;5.10;99.90;;;;;;6095268;23;20090;-77
2023/10/18 04:10:59;;;;;;;45.38;19.65;;;5.10;99.90;;;;;;6095268;23;20018;-77
2023/10/18 04:13:31;;;;;;;44.28;19.17;;;5.10;99.90;;;;;;6095265;23;20322;-77
2023/10/18 04:15:59;;;;;;;49.13;21.67;;;5.10;99.90;;;;;;6095684;23;20428;-77
2023/10/18 04:18:29;;;;;;;43.28;20.30;;;5.10;99.90;;;;;;6096907;23;20097;-76
2023/10/18 04:21:16;;;;;;;42.95;19.63;;;5.10;99.90;;;;;;6095236;23;20025;-77
2023/10/18 04:23:49;;;;;;;45.22;20.60;;;5.10;99.90;;;;;;6094922;23;20089;-77
2023/10/18 04:26:18;;;;;;;43.30;19.98;;;5.20;99.90;;;;;;6095277;23;20022;-77
2023/10/18 04:28:45;;;;;;;46.78;20.95;;;5.10;99.90;;;;;;6095247;23;20093;-77
2023/10/18 04:31:14;;;;;;;45.20;19.35;;;5.20;99.90;;;;;;6095123;23;20022;-77
2023/10/18 04:33:41;;;;;;;44.42;20.63;;;5.20;99.90;;;;;;6095150;23;20025;-77
2023/10/18 04:36:14;;;;;;;45.55;20.42;;;5.30;99.90;;;;;;6095120;23;20022;-77
2023/10/18 04:38:44;;;;;;;44.72;20.60;;;5.30;99.90;;;;;;6096772;23;20042;-76
2023/10/18 04:43:53;;;;;;;46.80;20.48;;;5.30;99.90;;;;;;6095263;23;20453;-77
2023/10/18 04:46:26;;;;;;;48.22;20.98;;;5.40;99.90;;;;;;6097874;23;20102;-78
2023/10/18 04:54:11;;;;;;;41.05;19.20;;;5.40;99.90;;;;;;6099286;23;20380;-77
2023/10/18 04:56:38;;;;;;;42.63;19.75;;;5.40;99.90;;;;;;6097332;23;20073;-77
2023/10/18 05:02:17;;;;;;;40.00;17.92;;;5.40;99.90;;;;;;6097411;23;20019;-78
2023/10/18 05:04:35;;;;;;;42.20;19.85;;;5.40;99.90;;;;;;6091580;23;20089;-77
2023/10/18 05:07:14;;;;;;;41.58;19.50;;;5.40;99.90;;;;;;6099066;23;20038;-77
2023/10/18 05:12:16;;;;;;;39.05;20.52;;;5.50;99.90;;;;;;6096996;23;20026;-77
2023/10/18 05:14:43;;;;;;;42.42;21.13;;;5.50;99.90;;;;;;6098561;23;20433;-77
2023/10/18 05:17:17;;;;;;;39.60;20.98;;;5.50;99.90;;;;;;6096853;23;20100;-77
2023/10/18 05:19:47;;;;;;;41.53;20.50;;;5.50;99.90;;;;;;6096998;23;20046;-77
2023/10/18 05:22:35;;;;;;;40.08;19.98;;;5.50;99.90;;;;;;6096759;23;20536;-77
2023/10/18 05:27:47;;;;;;;35.55;15.10;;;5.50;99.90;;;;;;6096842;23;20348;-76
2023/10/18 05:30:16;;;;;;;35.55;16.70;;;5.50;99.90;;;;;;6097187;23;20381;-77
2023/10/18 05:32:49;;;;;;;35.10;16.95;;;5.50;99.90;;;;;;6098243;23;20014;-76
2023/10/18 05:35:22;;;;;;;35.47;16.63;;;5.50;99.90;;;;;;6096850;23;20014;-77
2023/10/18 05:37:50;;;;;;;36.40;17.23;;;5.50;99.90;;;;;;6096822;23;20105;-77
2023/10/18 05:43:12;;;;;;;37.67;17.05;;;5.50;99.90;;;;;;6096695;23;20022;-77
2023/10/18 05:45:41;;;;;;;36.72;17.05;;;5.50;99.90;;;;;;6098202;23;20065;-77
2023/10/18 05:48:16;;;;;;;38.40;18.20;;;5.50;99.90;;;;;;6098114;23;20336;-76
2023/10/18 05:50:48;;;;;;;36.13;17.08;;;5.50;99.90;;;;;;6096561;23;20014;-76
2023/10/18 05:53:18;;;;;;;36.85;18.02;;;5.50;99.90;;;;;;6097778;23;20324;-77
2023/10/18 05:55:52;;;;;;;34.38;15.57;;;5.50;99.90;;;;;;6096267;23;20440;-77
2023/10/18 05:58:25;;;;;;;32.78;14.45;;;5.50;99.90;;;;;;6096553;23;20314;-77
2023/10/18 06:00:52;;;;;;;33.47;13.63;;;5.50;99.90;;;;;;6096419;23;20015;-76
2023/10/18 06:03:19;;;;;;;30.17;13.10;;;5.50;99.90;;;;;;6096508;23;20026;-77
2023/10/18 06:05:45;;;;;;;26.52;12.13;;;5.50;99.90;;;;;;6098251;23;20015;-77
2023/10/18 06:08:13;;;;;;;30.70;12.15;;;5.50;99.90;;;;;;6096592;23;20425;-76
2023/10/18 06:10:39;;;;;;;33.80;14.52;;;5.50;99.90;;;;;;6096311;23;20025;-77
2023/10/18 06:13:10;;;;;;;33.95;13.63;;;5.50;99.90;;;;;;6096391;23;20023;-76
2023/10/18 06:15:44;;;;;;;29.17;12.15;;;5.50;99.90;;;;;;6097715;23;20093;-77
2023/10/18 06:18:16;;;;;;;28.42;11.70;;;5.50;99.90;;;;;;6096233;23;20369;-77
2023/10/18 06:20:44;;;;;;;28.45;12.27;;;5.60;99.90;;;;;;6095899;23;20298;-77
2023/10/18 06:23:36;;;;;;;32.90;16.38;;;5.50;99.90;;;;;;6096142;23;20380;-77
2023/10/18 06:26:38;;;;;;;36.35;16.58;;;5.60;99.90;;;;;;6096844;23;20390;-76
2023/10/18 06:29:08;;;;;;;34.42;15.93;;;5.60;99.90;;;;;;6091684;23;20445;-79
2023/10/18 06:31:46;;;;;;;31.55;15.05;;;5.60;99.90;;;;;;6095796;23;20085;-76
2023/10/18 06:34:18;;;;;;;33.92;16.00;;;5.60;99.90;;;;;;6097490;23;20037;-77
2023/10/18 06:36:52;;;;;;;29.83;15.20;;;5.60;99.90;;;;;;6095941;23;20011;-76
2023/10/18 06:39:25;;;;;;;32.83;15.85;;;5.60;99.90;;;;;;6097660;23;20010;-77
2023/10/18 06:41:53;;;;;;;28.20;14.07;;;5.60;99.90;;;;;;6095853;23;20313;-76
2023/10/18 06:44:19;;;;;;;34.28;14.95;;;5.70;99.90;;;;;;6095782;23;20015;-76
2023/10/18 06:46:47;;;;;;;30.30;14.20;;;5.70;99.90;;;;;;6095790;23;20021;-76
2023/10/18 06:49:13;;;;;;;29.55;14.60;;;5.70;99.90;;;;;;6095883;23;20089;-76
2023/10/18 06:51:43;;;;;;;27.13;14.20;;;5.70;99.90;;;;;;6095716;23;20042;-76
2023/10/18 06:54:15;;;;;;;30.00;13.68;;;5.80;99.90;;;;;;6096865;23;20022;-77
2023/10/18 06:56:46;;;;;;;30.50;13.80;;;5.80;99.90;;;;;;6095881;23;20015;-76
2023/10/18 06:59:13;;;;;;;30.38;13.85;;;5.80;99.90;;;;;;6095785;23;20022;-76
2023/10/18 07:01:41;;;;;;;31.00;14.82;;;5.80;99.90;;;;;;6095468;23;20046;-76
2023/10/18 07:07:11;;;;;;;27.08;12.35;;;5.90;99.90;;;;;;6079142;23;20326;-76
2023/10/18 07:09:38;;;;;;;30.02;13.48;;;5.90;99.90;;;;;;6096551;23;20019;-76
2023/10/18 07:12:03;;;;;;;30.52;14.15;;;5.90;99.90;;;;;;6095433;23;20097;-76
2023/10/18 07:14:32;;;;;;;29.75;13.65;;;5.90;99.90;;;;;;6095543;23;20045;-75
2023/10/18 07:17:01;;;;;;;25.80;13.65;;;6.00;99.90;;;;;;6095532;23;20011;-75
2023/10/18 07:19:29;;;;;;;30.13;12.82;;;6.00;99.90;;;;;;6095686;23;20018;-75
2023/10/18 07:21:57;;;;;;;27.42;13.00;;;6.00;99.90;;;;;;6097149;23;20046;-78
2023/10/18 07:24:36;;;;;;;24.80;12.02;;;6.10;99.90;;;;;;6097708;23;20006;-75
2023/10/18 07:27:09;;;;;;;31.27;12.60;;;6.10;99.90;;;;;;6096203;23;20014;-76
2023/10/18 07:29:45;;;;;;;28.67;13.30;;;6.10;99.90;;;;;;6095664;23;20018;-76
2023/10/18 07:32:14;;;;;;;25.83;12.98;;;6.20;99.90;;;;;;6095437;23;20374;-76
2023/10/18 07:34:42;;;;;;;29.25;13.45;;;6.20;99.90;;;;;;6095529;23;20441;-77
2023/10/18 07:37:17;;;;;;;30.17;15.73;;;6.20;99.90;;;;;;6095442;23;20460;-76
2023/10/18 07:39:56;;;;;;;31.70;14.95;;;6.20;99.90;;;;;;6095544;23;20049;-76
2023/10/18 07:42:34;;;;;;;27.27;14.25;;;6.30;99.90;;;;;;6095387;23;20479;-76
2023/10/18 07:45:04;;;;;;;24.70;13.40;;;6.30;99.90;;;;;;6095425;23;20022;-76
2023/10/18 07:47:37;;;;;;;23.45;12.90;;;6.30;99.90;;;;;;6095444;23;20014;-76
2023/10/18 07:50:25;;;;;;;25.92;11.68;;;6.40;99.90;;;;;;6095605;23;20356;-75
2023/10/18 07:52:53;;;;;;;26.17;12.15;;;6.40;99.90;;;;;;6095587;23;20077;-76
2023/10/18 07:55:19;;;;;;;25.33;12.38;;;6.40;99.90;;;;;;6097078;23;20441;-77
2023/10/18 07:57:46;;;;;;;26.60;12.15;;;6.50;99.90;;;;;;6097087;23;20018;-76
2023/10/18 08:00:21;;;;;;;27.80;15.32;;;6.60;99.90;;;;;;6095462;23;20049;-76
2023/10/18 08:02:50;;;;;;;27.63;15.82;;;6.60;99.90;;;;;;6095622;23;20015;-77
2023/10/18 08:05:22;;;;;;;32.78;17.60;;;6.60;99.90;;;;;;6097251;23;20082;-76
2023/10/18 08:07:52;;;;;;;31.08;15.57;;;6.70;99.90;;;;;;6095418;23;20030;-76
2023/10/18 08:10:21;;;;;;;26.05;15.07;;;6.70;99.90;;;;;;6095569;23;20076;-76
2023/10/18 08:15:38;;;;;;;27.27;15.18;;;6.80;99.90;;;;;;6097112;23;20033;-75
2023/10/18 08:18:42;;;;;;;30.00;14.25;;;6.90;99.90;;;;;;6095752;23;20010;-76
2023/10/18 08:26:06;;;;;;;27.73;15.23;;;7.10;99.90;;;;;;6095207;23;20023;-77
2023/10/18 08:28:39;;;;;;;26.23;14.18;;;7.10;99.90;;;;;;6095073;23;20050;-76
2023/10/18 08:31:17;;;;;;;25.20;14.07;;;7.20;99.90;;;;;;6095033;23;20014;-76
2023/10/18 08:33:43;;;;;;;24.02;14.35;;;7.30;99.90;;;;;;6096858;23;20034;-77
2023/10/18 08:36:16;;;;;;;25.58;13.02;;;7.30;99.90;;;;;;6096838;23;20490;-77
2023/10/18 08:38:41;;;;;;;27.50;14.52;;;7.40;99.90;;;;;;6095413;23;20087;-75
2023/10/18 08:41:13;;;;;;;19.98;11.25;;;7.40;99.90;;;;;;6097818;23;20409;-76
2023/10/18 08:43:57;;;;;;;21.00;10.68;;;7.50;99.90;;;;;;6095384;23;20021;-76
2023/10/18 08:46:24;;;;;;;19.85;12.15;;;7.50;99.90;;;;;;6095374;23;20022;-75
2023/10/18 08:48:55;;;;;;;23.50;13.00;;;7.60;99.90;;;;;;6095345;23;20018;-75
2023/10/18 08:51:26;;;;;;;21.90;12.68;;;7.60;99.90;;;;;;6095301;23;20022;-76
2023/10/18 08:53:54;;;;;;;22.63;11.80;;;7.70;99.90;;;;;;6095208;23;20018;-75
2023/10/18 08:56:29;;;;;;;24.52;13.02;;;7.70;99.90;;;;;;6095346;23;20014;-75
2023/10/18 08:58:56;;;;;;;21.67;12.25;;;7.80;99.90;;;;;;6095345;23;20057;-76
2023/10/18 09:01:24;;;;;;;20.13;12.30;;;7.90;99.90;;;;;;6099734;23;20048;-77
2023/10/18 09:03:50;;;;;;;20.98;11.40;;;7.90;99.90;;;;;;6076534;23;20017;-76
2023/10/18 09:06:22;;;;;;;20.92;12.35;;;8.00;99.90;;;;;;6125978;23;20021;-76
2023/10/18 09:11:37;;;;;;;20.38;11.10;;;8.10;99.90;;;;;;6126220;23;20053;-77
2023/10/18 09:14:10;;;;;;;20.70;11.50;;;8.10;99.90;;;;;;6126046;23;20463;-76
2023/10/18 09:16:55;;;;;;;;;;;;;;;;;;;;;
2023/10/18 09:19:27;;;;;;;18.30;11.10;;;8.30;99.90;;;;;;6036567;23;20015;-76
2023/10/18 09:21:57;;;;;;;20.55;10.93;;;8.30;99.90;;;;;;6100147;23;20018;-75
2023/10/18 09:24:23;;;;;;;18.08;10.93;;;8.40;99.90;;;;;;6126617;23;20014;-76
2023/10/18 09:26:50;;;;;;;18.63;11.18;;;8.40;99.90;;;;;;6100193;23;20344;-76
2023/10/18 09:29:17;;;;;;;14.43;7.70;;;8.50;99.90;;;;;;6100170;23;20463;-76
2023/10/18 09:32:03;;;;;;;17.50;7.78;;;8.60;99.90;;;;;;6100904;23;20010;-76
2023/10/18 09:34:38;;;;;;;15.13;7.05;;;8.70;99.90;;;;;;6077632;23;20014;-76
2023/10/18 09:37:13;;;;;;;13.18;6.85;;;8.80;99.90;;;;;;6102524;23;20443;-76
2023/10/18 09:39:42;;;;;;;13.73;6.47;;;8.80;99.90;;;;;;6101708;23;20025;-76
2023/10/18 09:42:12;;;;;;;15.25;7.50;;;8.80;99.90;;;;;;6101812;23;20010;-76
2023/10/18 09:44:41;;;;;;;13.55;6.80;;;8.90;99.90;;;;;;6077712;23;20021;-76
2023/10/18 09:47:07;;;;;;;14.95;6.75;;;8.90;99.90;;;;;;6101774;23;20009;-76
2023/10/18 09:49:34;;;;;;;14.43;7.00;;;9.00;99.90;;;;;;6127680;23;20010;-76
2023/10/18 09:52:03;;;;;;;13.77;7.00;;;9.00;99.90;;;;;;6101790;23;20487;-76
2023/10/18 09:54:35;;;;;;;11.63;6.22;;;9.00;99.90;;;;;;6128003;23;20010;-76
2023/10/18 09:57:02;;;;;;;14.30;6.18;;;9.10;99.90;;;;;;6128344;23;20014;-76
2023/10/18 09:59:31;;;;;;;15.55;6.55;;;9.10;99.90;;;;;;6101694;23;20392;-76
2023/10/18 10:02:07;;;;;;;13.63;6.75;;;9.20;99.90;;;;;;6127663;23;20041;-76
2023/10/18 10:04:37;;;;;;;13.27;6.93;;;9.20;99.90;;;;;;6101744;23;20448;-76
2023/10/18 10:09:49;;;;;;;11.67;6.13;;;9.40;99.90;;;;;;6101623;23;20041;-76
2023/10/18 10:12:19;;;;;;;12.60;6.32;;;9.40;99.90;;;;;;6127631;23;20010;-75
2023/10/18 10:14:45;;;;;;;13.70;6.18;;;9.50;99.90;;;;;;6101491;23;20044;-75
2023/10/18 10:17:15;;;;;;;14.07;6.40;;;9.60;99.90;;;;;;6101526;23;20014;-76
2023/10/18 10:19:51;;;;;;;10.32;5.90;;;9.60;99.90;;;;;;6101278;23;20077;-76
2023/10/18 10:22:23;;;;;;;13.55;8.73;;;9.70;99.90;;;;;;6127590;23;20014;-76
2023/10/18 10:25:05;;;;;;;10.23;5.40;;;9.70;99.90;;;;;;6101252;23;20018;-76
2023/10/18 10:32:54;;;;;;;13.32;5.30;;;9.90;99.90;;;;;;6101145;23;20420;-76
2023/10/18 10:35:25;;;;;;;10.85;5.30;;;10.00;99.90;;;;;;6101101;23;20053;-76
2023/10/18 10:37:52;;;;;;;12.15;6.20;;;10.00;99.90;;;;;;6101271;23;20069;-76
2023/10/18 10:43:02;;;;;;;11.07;5.88;;;10.10;99.90;;;;;;6100619;23;20072;-76
2023/10/18 10:48:15;;;;;;;12.45;5.63;;;10.10;99.90;;;;;;6100885;23;20022;-76
2023/10/18 10:50:42;;;;;;;13.02;5.75;;;10.20;99.90;;;;;;6100595;23;20025;-76
2023/10/18 10:53:09;;;;;;;11.32;5.32;;;10.20;99.90;;;;;;6100766;23;20053;-77
2023/10/18 10:55:34;;;;;;;10.55;5.65;;;10.30;99.90;;;;;;6101037;23;20444;-76
2023/10/18 10:58:17;;;;;;;10.65;5.63;;;10.40;99.90;;;;;;6100875;23;20052;-77
2023/10/18 11:01:12;;;;;;;11.95;5.60;;;10.40;99.90;;;;;;6100701;23;20093;-76
2023/10/18 11:03:53;;;;;;;10.93;5.35;;;10.50;99.90;;;;;;6101843;23;20049;-75
2023/10/18 11:06:32;;;;;;;11.45;6.70;;;10.50;99.90;;;;;;6100766;23;20089;-76
2023/10/18 11:08:58;;;;;;;10.18;4.82;;;10.60;99.90;;;;;;6100766;23;20088;-77
2023/10/18 11:11:27;;;;;;;13.40;6.10;;;10.70;99.90;;;;;;6126562;23;20041;-76
2023/10/18 11:13:53;;;;;;;11.05;4.97;;;10.70;99.90;;;;;;6100533;23;20069;-76
2023/10/18 11:16:22;;;;;;;11.18;4.75;;;10.80;99.90;;;;;;6100644;23;20018;-76
2023/10/18 11:18:49;;;;;;;10.48;4.90;;;10.80;99.90;;;;;;6126893;23;20010;-75
2023/10/18 11:21:24;;;;;;;11.18;5.25;;;10.80;99.90;;;;;;6100700;23;20137;-76
2023/10/18 11:24:04;;;;;;;12.45;5.43;;;10.80;99.90;;;;;;6100896;23;20448;-76
2023/10/18 11:26:38;;;;;;;11.68;5.72;;;10.80;99.90;;;;;;6100502;23;20018;-76
2023/10/18 11:29:05;;;;;;;14.15;5.30;;;10.90;99.90;;;;;;6127363;23;20413;-76
2023/10/18 11:31:32;;;;;;;13.80;5.65;;;10.90;99.90;;;;;;6100412;23;20014;-75
2023/10/18 11:34:07;;;;;;;13.10;5.82;;;10.90;99.90;;;;;;6100373;23;20470;-76
2023/10/18 11:36:39;;;;;;;;;;;10.90;99.90;;;;;;6076926;23;20348;-76
2023/10/18 11:39:17;;;;;;;10.30;4.72;;;10.90;99.90;;;;;;6100566;23;19913;-76
2023/10/18 11:41:44;;;;;;;9.95;5.15;;;10.90;99.90;;;;;;6126713;23;20006;-76
2023/10/18 11:44:14;;;;;;;14.15;5.75;;;10.90;99.90;;;;;;6127357;23;20041;-76
2023/10/18 11:46:46;;;;;;;10.35;4.90;;;11.00;99.90;;;;;;6100554;23;20010;-76
2023/10/18 11:49:19;;;;;;;10.02;5.22;;;11.00;99.90;;;;;;6100470;23;20017;-75
2023/10/18 11:51:50;;;;;;;9.75;5.22;;;11.00;99.90;;;;;;6101559;23;20054;-75
2023/10/18 11:54:36;;;;;;;14.95;5.70;;;11.10;99.90;;;;;;6100314;23;20460;-76
2023/10/18 11:57:05;;;;;;;11.02;6.82;;;11.10;99.90;;;;;;6100354;23;20503;-75
2023/10/18 12:02:54;;;;;;;10.88;4.97;;;11.20;99.90;;;;;;6069680;23;20453;-76
2023/10/18 12:05:27;;;;;;;9.05;4.80;;;11.30;99.90;;;;;;6076416;23;20137;-76
2023/10/18 12:07:56;;;;;;;10.38;4.65;;;11.40;99.90;;;;;;6100293;23;20041;-76
2023/10/18 12:10:34;;;;;;;10.75;5.43;;;11.40;99.90;;;;;;6100152;23;20056;-76
2023/10/18 12:13:02;;;;;;;9.82;5.18;;;11.50;99.90;;;;;;6100323;23;20018;-76
2023/10/18 12:15:30;;;;;;;11.98;5.00;;;11.60;99.90;;;;;;6100326;23;20018;-76
2023/10/18 12:17:56;;;;;;;8.45;4.80;;;11.60;99.90;;;;;;6126221;23;20596;-76
2023/10/18 12:20:34;;;;;;;13.77;4.72;;;11.70;99.90;;;;;;6100296;23;20014;-76
2023/10/18 12:23:13;;;;;;;10.68;5.10;;;11.80;99.90;;;;;;6100334;23;20022;-76
2023/10/18 12:25:44;;;;;;;11.00;4.82;;;12.00;99.90;;;;;;6100479;23;20017;-75
2023/10/18 12:30:56;;;;;;;14.80;6.28;;;12.10;99.90;;;;;;6101075;23;20073;-77
2023/10/18 12:33:28;;;;;;;8.63;5.75;;;12.20;99.90;;;;;;6100162;23;20097;-78
2023/10/18 12:35:58;;;;;;;12.18;6.47;;;12.30;99.90;;;;;;6100857;23;20085;-76
2023/10/18 12:38:32;;;;;;;12.38;5.95;;;12.40;99.90;;;;;;6100179;23;20025;-76
2023/10/18 12:41:52;;;;;;;10.33;5.23;;;12.40;99.90;;;;;;6126448;23;20010;-77
2023/10/18 12:43:51;;;;;;;10.95;5.07;;;12.40;99.90;;;;;;6085018;23;20448;-77
2023/10/18 12:46:17;;;;;;;10.98;5.72;;;12.40;99.90;;;;;;6100149;23;20022;-76
2023/10/18 12:48:44;;;;;;;11.40;5.90;;;12.40;99.90;;;;;;6100213;23;20014;-77
2023/10/18 12:51:12;;;;;;;10.68;6.20;;;12.40;99.90;;;;;;6126757;23;20043;-76
2023/10/18 12:53:41;;;;;;;11.27;6.60;;;12.30;99.90;;;;;;6076994;23;20014;-76
2023/10/18 13:04:07;;;;;;;8.95;4.63;;;12.00;99.90;;;;;;6100252;23;20054;-76
2023/10/18 13:06:42;;;;;;;11.63;6.60;;;12.00;99.90;;;;;;6127390;23;20014;-77
2023/10/18 13:09:29;;;;;;;12.20;5.78;;;11.90;99.90;;;;;;6102046;23;20014;-76
2023/10/18 13:14:29;;;;;;;9.00;4.93;;;11.70;99.90;;;;;;6101935;23;20025;-77
2023/10/18 13:16:56;;;;;;;9.13;4.45;;;11.70;99.90;;;;;;6102130;23;20010;-75
2023/10/18 13:19:24;;;;;;;8.70;4.07;;;11.70;99.90;;;;;;6101946;23;20089;-76
2023/10/18 13:21:50;;;;;;;8.38;4.32;;;11.70;99.90;;;;;;6101903;23;20432;-76
2023/10/18 13:26:48;;;;;;;9.13;4.70;;;11.60;99.90;;;;;;6101867;23;20022;-75
2023/10/18 13:31:46;;;;;;;14.30;7.30;;;11.60;99.90;;;;;;6101860;23;20050;-75
2023/10/18 13:34:18;;;;;;;10.82;6.88;;;11.50;99.90;;;;;;6101732;23;20348;-76
2023/10/18 13:36:54;;;;;;;12.88;7.03;;;11.50;99.90;;;;;;6077956;23;20436;-76
2023/10/18 13:39:23;;;;;;;10.85;7.07;;;11.50;99.90;;;;;;6102055;23;20310;-75
2023/10/18 13:41:49;;;;;;;13.45;5.82;;;11.50;99.90;;;;;;6079977;23;20092;-77
2023/10/18 13:44:20;;;;;;;10.23;5.10;;;11.50;99.90;;;;;;6129619;23;20018;-75
2023/10/18 13:46:54;;;;;;;9.43;4.93;;;11.60;99.90;;;;;;6102019;23;20022;-76
2023/10/18 13:49:23;;;;;;;10.93;5.25;;;11.60;99.90;;;;;;6101804;23;20023;-76
2023/10/18 13:51:50;;;;;;;12.27;5.00;;;11.70;99.90;;;;;;6101871;23;20014;-76
2023/10/18 13:54:15;;;;;;;9.63;4.93;;;11.80;99.90;;;;;;6101530;23;20044;-76
2023/10/18 13:56:43;;;;;;;8.95;4.68;;;11.80;99.90;;;;;;6101628;23;20068;-76
2023/10/18 13:59:09;;;;;;;10.38;5.18;;;11.90;99.90;;;;;;6127438;23;20006;-75
2023/10/18 14:01:35;;;;;;;8.15;4.25;;;12.00;99.90;;;;;;6101244;23;20432;-76
2023/10/18 14:04:01;;;;;;;10.52;4.90;;;12.00;99.90;;;;;;6101605;23;20014;-76
2023/10/18 14:06:30;;;;;;;8.50;4.47;;;12.00;99.90;;;;;;6101484;23;20013;-76
2023/10/18 14:08:56;;;;;;;8.68;4.75;;;12.10;99.90;;;;;;6101458;23;20024;-75
2023/10/18 14:11:22;;;;;;;10.65;5.10;;;12.10;99.90;;;;;;6101269;23;20089;-76
2023/10/18 14:13:49;;;;;;;11.82;5.30;;;12.10;99.90;;;;;;6101343;23;20046;-76
2023/10/18 14:16:18;;;;;;;11.77;4.75;;;12.10;99.90;;;;;;6127514;23;20081;-76
2023/10/18 14:18:46;;;;;;;13.07;6.00;;;12.10;99.90;;;;;;6102217;23;20013;-75
2023/10/18 14:21:15;;;;;;;10.68;5.00;;;12.00;99.90;;;;;;6102310;23;20010;-75
2023/10/18 14:23:48;;;;;;;13.10;5.00;;;12.00;99.90;;;;;;6127043;23;20514;-76
2023/10/18 14:26:15;;;;;;;10.68;5.13;;;12.00;99.90;;;;;;6101201;23;20452;-76
2023/10/18 14:28:41;;;;;;;10.55;4.70;;;11.90;99.90;;;;;;6127493;23;20384;-75
2023/10/18 14:31:15;;;;;;;11.52;4.97;;;11.80;99.90;;;;;;6101807;23;20025;-76
2023/10/18 14:33:44;;;;;;;11.68;5.25;;;11.70;99.90;;;;;;6101058;23;20018;-75
2023/10/18 14:36:14;;;;;;;9.10;5.03;;;11.70;99.90;;;;;;6101058;23;20018;-75
2023/10/18 14:38:40;;;;;;;9.27;5.03;;;11.70;99.90;;;;;;6102158;23;20289;-75
2023/10/18 14:41:13;;;;;;;10.82;4.90;;;11.60;99.90;;;;;;6100944;23;20045;-75
2023/10/18 14:43:50;;;;;;;14.45;5.30;;;11.60;99.90;;;;;;6101705;23;20022;-75
2023/10/18 14:46:18;;;;;;;12.32;6.78;;;11.50;99.90;;;;;;6127524;23;20088;-75
2023/10/18 14:48:46;;;;;;;11.38;6.18;;;11.50;99.90;;;;;;6100888;23;20466;-75
2023/10/18 14:51:12;;;;;;;10.68;6.07;;;11.40;99.90;;;;;;6100792;23;20018;-75
2023/10/18 14:53:40;;;;;;;13.20;7.53;;;11.40;99.90;;;;;;6126797;23;20045;-76
2023/10/18 14:56:13;;;;;;;12.43;7.18;;;11.30;99.90;;;;;;6127139;23;20010;-76
2023/10/18 14:58:40;;;;;;;12.95;7.10;;;11.30;99.90;;;;;;6100837;23;20431;-76
2023/10/18 15:01:06;;;;;;;14.00;7.80;;;11.20;99.90;;;;;;6100552;23;20010;-75
2023/10/18 15:03:31;;;;;;;14.35;7.93;;;11.20;99.90;;;;;;6126782;23;20014;-76
2023/10/18 15:05:57;;;;;;;12.32;7.03;;;11.10;99.90;;;;;;6126869;23;20013;-76
2023/10/18 15:08:23;;;;;;;11.98;7.25;;;11.10;99.90;;;;;;6100814;23;20025;-76
2023/10/18 15:10:49;;;;;;;13.68;6.80;;;11.00;99.90;;;;;;6100752;23;20395;-76
2023/10/18 15:13:19;;;;;;;13.13;7.22;;;11.00;99.90;;;;;;6126695;23;20053;-76
2023/10/18 15:15:45;;;;;;;13.48;7.18;;;10.90;99.90;;;;;;6101087;23;20006;-75
2023/10/18 15:18:14;;;;;;;13.95;6.97;;;10.90;99.90;;;;;;6100736;23;20018;-76
2023/10/18 15:20:41;;;;;;;15.90;8.05;;;10.90;99.90;;;;;;6126684;23;20049;-74
2023/10/18 15:23:08;;;;;;;15.68;8.20;;;10.90;99.90;;;;;;6100692;23;20045;-75
2023/10/18 15:25:33;;;;;;;14.95;7.93;;;10.80;99.90;;;;;;6126886;23;20021;-76
2023/10/18 15:27:59;;;;;;;14.98;7.85;;;10.80;99.90;;;;;;6100508;23;20013;-76
2023/10/18 15:30:25;;;;;;;13.30;6.10;;;10.80;99.90;;;;;;6100349;23;20081;-75
2023/10/18 15:32:51;;;;;;;13.07;5.82;;;10.70;99.90;;;;;;6126421;23;20389;-76
2023/10/18 15:35:17;;;;;;;12.00;5.57;;;10.70;99.90;;;;;;6126345;23;20010;-76
2023/10/18 15:37:43;;;;;;;11.80;6.03;;;10.70;99.90;;;;;;6100367;23;20325;-77
2023/10/18 15:40:16;;;;;;;12.50;5.63;;;10.60;99.90;;;;;;6100612;23;20336;-76
2023/10/18 15:42:42;;;;;;;14.20;6.28;;;10.60;99.90;;;;;;6100498;23;20024;-75
2023/10/18 15:45:12;;;;;;;15.05;5.90;;;10.60;99.90;;;;;;6100524;23;20049;-75
2023/10/18 15:47:39;;;;;;;15.43;5.57;;;10.50;99.90;;;;;;6101062;23;20049;-76
2023/10/18 15:50:09;;;;;;;12.70;5.78;;;10.50;99.90;;;;;;6100521;23;20022;-76
2023/10/18 15:52:38;;;;;;;14.88;6.00;;;10.50;99.90;;;;;;6100286;23;20067;-76
2023/10/18 15:55:04;;;;;;;12.20;6.40;;;10.40;99.90;;;;;;6126433;23;20014;-75
2023/10/18 15:57:30;;;;;;;12.00;5.57;;;10.40;99.90;;;;;;6100369;23;20010;-75
2023/10/18 15:59:56;;;;;;;13.35;5.70;;;10.30;99.90;;;;;;6126591;23;20025;-76
2023/10/18 16:02:24;;;;;;;12.52;6.07;;;10.30;99.90;;;;;;6100897;23;20017;-76
2023/10/18 16:04:50;;;;;;;16.13;6.72;;;10.30;99.90;;;;;;6100365;23;20053;-75
2023/10/18 16:07:16;;;;;;;12.75;5.95;;;10.30;99.90;;;;;;6100356;23;20010;-76
2023/10/18 16:09:44;;;;;;;16.23;6.32;;;10.20;99.90;;;;;;6100437;23;20495;-77
2023/10/18 16:12:10;;;;;;;15.70;6.70;;;10.20;99.90;;;;;;6126342;23;20017;-76
2023/10/18 16:14:36;;;;;;;16.00;6.40;;;10.20;99.90;;;;;;6100307;23;20037;-75
2023/10/18 16:17:02;;;;;;;13.35;7.00;;;10.20;99.90;;;;;;6076714;23;20017;-76
2023/10/18 16:19:28;;;;;;;14.85;8.27;;;10.10;99.90;;;;;;6100194;23;20014;-76
2023/10/18 16:21:54;;;;;;;14.50;8.07;;;10.10;99.90;;;;;;6126528;23;20010;-76
2023/10/18 16:24:22;;;;;;;15.85;8.38;;;10.00;99.90;;;;;;6126306;23;20388;-76
2023/10/18 16:26:49;;;;;;;15.77;8.52;;;10.00;99.90;;;;;;6100237;23;20404;-76
2023/10/18 16:29:15;;;;;;;14.50;8.23;;;10.00;99.90;;;;;;6100356;23;20025;-76
2023/10/18 16:31:42;;;;;;;20.05;8.85;;;9.90;99.90;;;;;;6126485;23;20092;-75
2023/10/18 16:34:07;;;;;;;14.00;7.78;;;9.90;99.90;;;;;;6100203;23;20080;-76
2023/10/18 16:36:33;;;;;;;15.95;8.50;;;9.90;99.90;;;;;;6126615;23;20444;-77
2023/10/18 16:38:59;;;;;;;14.82;8.18;;;9.90;99.90;;;;;;6126559;23;20010;-76
2023/10/18 16:41:28;;;;;;;16.50;8.13;;;9.80;99.90;;;;;;6127155;23;20041;-76
2023/10/18 16:43:53;;;;;;;16.23;8.43;;;9.80;99.90;;;;;;6078162;23;20022;-76
2023/10/18 16:46:19;;;;;;;17.23;8.48;;;9.80;99.90;;;;;;6102178;23;20028;-75
2023/10/18 16:48:46;;;;;;;15.30;7.80;;;9.70;99.90;;;;;;6102126;23;20045;-76
2023/10/18 16:51:12;;;;;;;15.90;7.70;;;9.70;99.90;;;;;;6102031;23;20022;-76
2023/10/18 16:53:45;;;;;;;15.85;8.07;;;9.70;99.90;;;;;;6102402;23;20440;-77
2023/10/18 16:56:14;;;;;;;16.00;7.95;;;9.70;99.90;;;;;;6102893;23;20109;-78
2023/10/18 16:58:40;;;;;;;19.17;9.00;;;9.70;99.90;;;;;;6101984;23;20014;-76
2023/10/18 17:01:12;;;;;;;15.95;8.85;;;9.60;99.90;;;;;;6127984;23;20032;-76
2023/10/18 17:03:42;;;;;;;14.77;8.68;;;9.70;99.90;;;;;;6129164;23;20014;-75
2023/10/18 17:06:11;;;;;;;16.15;9.70;;;9.60;99.90;;;;;;6128256;23;20085;-76
2023/10/18 17:08:37;;;;;;;14.45;8.82;;;9.60;99.90;;;;;;6102172;23;20164;-76